Pagrindinis puslapis
METAR-TAF:

METAR-TAF

Oro uostai :

Clinton-Burns Flat, Oklahoma, Jungtinės Amerikos Valstijos

platuma: 35-21-24N, ilguma: 099-12-13W, Aukštis: 585 m

Dabartinis oras

Ataskaita buvo paskelbta 1 valandą ir 0 minutes, ne 16:53 UTC
Vėjas 3 kt iš Pietryčių
Temperatūra 27°C
Drėgmė 42%
Slėgis 1021 hPa
Matomumas: 9.7 km
Giedras dangus
migla

METAR: KCSM 031653Z 14003KT 6SM HZ CLR 27/13 A3015 RMK AO2 SLP187 T02720128

Laikas: 12:53 (17:53 UTC)

Prognozė

Ataskaita buvo paskelbta 29 minutes, ne 17:24 UTC
Prognozė galioja nuo 03 metu 18 UTC su 04 metu 18 UTC
Vėjas 8 kt iš Pietryčių
Matomumas: 9.7 km
Mažai debesys ne aukštis 5000 ft
migla
Laikinai
nuo 04 metu 11 UTC su 04 metu 15 UTC
Matomumas: 6.4 km
migla

TAF: KCSM 031724Z 0318/0418 14008KT 6SM HZ FEW050 TEMPO 0411/0415 4SM HZ

Orai ataskaitas ir orų prognozės (METAR, TAF).

turimą stotys yra geltonos ir raudonos taškus žemėlapyje.

Perkelti pele per norėdami pamatyti stoties vardą.

Tada spustelėkite, norėdami matyti oro stebėjimo ir prognozės.

Norėdami pakeisti žemėlapį: spustelėkite ant žalios mygtukų su juodo kryžiaus žemyn,; žalią mygtuką su brūkšneliu, jei norite nutolinti; arba žalių rodyklių gretimoms žemėlapius.


METAR-TAF: